createdAt,value
2023-12-24T00:01:45.467Z,140167.89
2023-12-24T00:04:31.911Z,140159.25
2023-12-24T00:07:18.514Z,140150.88
2023-12-24T00:10:05.692Z,140140.28
2023-12-24T00:12:52.409Z,140137.83
2023-12-24T00:15:39.407Z,140137.08
2023-12-24T00:18:26.030Z,140146.67
2023-12-24T00:21:15.673Z,140161.22
2023-12-24T00:24:01.988Z,140163.94
2023-12-24T00:26:48.222Z,140168.63
2023-12-24T00:29:34.708Z,140175.53
2023-12-24T00:32:21.406Z,140181.45
2023-12-24T00:35:08.083Z,140189.83
2023-12-24T00:37:57.554Z,140195.02
2023-12-24T00:40:44.008Z,140204.39
2023-12-24T00:43:30.766Z,140196.50
2023-12-24T00:46:17.529Z,140202.66
2023-12-24T00:49:04.055Z,140204.64
2023-12-24T00:51:51.593Z,140192.28
2023-12-24T00:54:38.100Z,140196.25
2023-12-24T00:57:25.944Z,140214.25
2023-12-24T01:00:13.049Z,140228.03
2023-12-24T01:02:59.593Z,140233.22
2023-12-24T01:05:45.996Z,140242.34
2023-12-24T01:08:32.445Z,140242.84
2023-12-24T01:11:19.034Z,140253.16
2023-12-24T01:14:05.215Z,140250.19
2023-12-24T01:16:51.533Z,140256.13
2023-12-24T01:19:37.517Z,140262.78
2023-12-24T01:22:23.681Z,140261.05
2023-12-24T01:25:12.988Z,140269.94
2023-12-24T01:27:59.247Z,140289.67
2023-12-24T01:30:45.507Z,140299.53
2023-12-24T01:33:32.154Z,140308.66
2023-12-24T01:36:18.619Z,140301.25
2023-12-24T01:39:04.808Z,140289.91
2023-12-24T01:41:50.685Z,140261.78
2023-12-24T01:44:36.862Z,140260.08
2023-12-24T01:47:23.767Z,140248.97
2023-12-24T01:50:11.188Z,140262.03
2023-12-24T01:52:57.376Z,140266.72
2023-12-24T01:55:44.371Z,140245.80
2023-12-24T01:58:30.832Z,140232.27
2023-12-24T02:01:17.278Z,140225.83
2023-12-24T02:04:03.892Z,140224.09
2023-12-24T02:06:52.100Z,140225.84
2023-12-24T02:09:39.452Z,140216.22
2023-12-24T02:12:25.710Z,140219.42
2023-12-24T02:15:12.161Z,140234.22
2023-12-24T02:18:00.610Z,140249.45
2023-12-24T02:20:48.492Z,140257.34
2023-12-24T02:23:35.205Z,140251.19
2023-12-24T02:26:32.246Z,140251.92
2023-12-24T02:29:27.649Z,140256.61
2023-12-24T02:32:16.536Z,140259.33
2023-12-24T02:35:04.335Z,140261.80
2023-12-24T02:37:50.999Z,140259.83
2023-12-24T02:40:37.286Z,140250.94
2023-12-24T02:43:23.356Z,140247.48
2023-12-24T02:46:09.610Z,140255.39
2023-12-24T02:48:55.700Z,140265.50
2023-12-24T02:51:42.170Z,140271.91
2023-12-24T02:54:28.148Z,140264.28
2023-12-24T02:57:14.014Z,140251.92
2023-12-24T03:00:00.421Z,140234.47
2023-12-24T03:02:47.469Z,140212.78
2023-12-24T03:05:33.960Z,140207.34
2023-12-24T03:08:20.329Z,140204.38
2023-12-24T03:11:06.891Z,140203.91
2023-12-24T03:13:53.416Z,140214.97
2023-12-24T03:16:39.815Z,140200.42
2023-12-24T03:19:26.110Z,140190.58
2023-12-24T03:22:12.517Z,140196.75
2023-12-24T03:24:58.666Z,140195.50
2023-12-24T03:27:44.846Z,140178.00
2023-12-24T03:30:31.274Z,140163.95
2023-12-24T03:33:17.519Z,140169.13
2023-12-24T03:36:04.020Z,140167.66
2023-12-24T03:38:50.332Z,140172.56
2023-12-24T03:41:36.392Z,140186.39
2023-12-24T03:44:22.705Z,140184.17
2023-12-24T03:47:08.711Z,140189.09
2023-12-24T03:49:54.576Z,140182.19
2023-12-24T03:52:41.238Z,140173.06
2023-12-24T03:55:27.270Z,140171.59
2023-12-24T03:58:14.013Z,140184.91
2023-12-24T04:01:00.552Z,140195.50
2023-12-24T04:03:47.931Z,140219.17
2023-12-24T04:06:34.262Z,140236.67
2023-12-24T04:09:20.978Z,140248.98
2023-12-24T04:12:07.327Z,140265.75
2023-12-24T04:14:53.558Z,140272.66
2023-12-24T04:17:39.775Z,140269.45
2023-12-24T04:20:25.842Z,140276.59
2023-12-24T04:23:12.746Z,140277.33
2023-12-24T04:25:58.874Z,140275.38
2023-12-24T04:28:45.386Z,140259.34
2023-12-24T04:31:31.904Z,140249.97
2023-12-24T04:34:18.119Z,140245.55
2023-12-24T04:37:04.542Z,140254.39
2023-12-24T04:39:50.887Z,140271.41
2023-12-24T04:42:37.172Z,140280.80
2023-12-24T04:45:23.233Z,140280.30
2023-12-24T04:48:09.286Z,140269.95
2023-12-24T04:50:55.393Z,140268.47
2023-12-24T04:53:42.011Z,140272.39
2023-12-24T04:56:30.405Z,140265.27
2023-12-24T04:59:16.884Z,140255.89
2023-12-24T05:02:03.924Z,140245.03
2023-12-24T05:04:50.781Z,140237.41
2023-12-24T05:07:37.081Z,140235.45
2023-12-24T05:10:22.966Z,140241.38
2023-12-24T05:13:11.952Z,140222.63
2023-12-24T05:15:58.084Z,140223.11
2023-12-24T05:18:44.058Z,140232.97
2023-12-24T05:21:30.990Z,140234.97
2023-12-24T05:24:17.686Z,140237.91
2023-12-24T05:27:04.102Z,140234.47
2023-12-24T05:29:50.039Z,140237.42
2023-12-24T05:32:36.235Z,140229.78
2023-12-24T05:35:22.494Z,140232.00
2023-12-24T05:38:08.614Z,140240.38
2023-12-24T05:40:55.444Z,140246.53
2023-12-24T05:43:41.953Z,140243.58
2023-12-24T05:46:28.300Z,140240.13
2023-12-24T05:49:14.263Z,140222.88
2023-12-24T05:52:00.740Z,140206.11
2023-12-24T05:54:47.065Z,140199.95
2023-12-24T05:57:32.983Z,140179.72
2023-12-24T06:00:19.157Z,140174.53
2023-12-24T06:03:05.678Z,140177.25
2023-12-24T06:05:52.140Z,140186.16
2023-12-24T06:08:39.681Z,140194.28
2023-12-24T06:11:26.346Z,140173.81
2023-12-24T06:14:12.789Z,140166.91
2023-12-24T06:16:59.505Z,140174.80
2023-12-24T06:19:46.097Z,140178.97
2023-12-24T06:22:32.486Z,140190.08
2023-12-24T06:25:20.438Z,140201.42
2023-12-24T06:28:06.775Z,140214.23
2023-12-24T06:30:52.763Z,140228.80
2023-12-24T06:33:38.827Z,140247.02
2023-12-24T06:36:25.290Z,140260.56
2023-12-24T06:39:13.035Z,140262.78
2023-12-24T06:41:59.356Z,140261.80
2023-12-24T06:44:45.426Z,140255.14
2023-12-24T06:47:32.052Z,140243.09
2023-12-24T06:50:19.090Z,140232.27
2023-12-24T06:53:07.056Z,140233.47
2023-12-24T06:55:53.150Z,140240.39
2023-12-24T06:58:39.405Z,140237.67
2023-12-24T07:01:25.376Z,140222.63
2023-12-24T07:04:11.598Z,140229.78
2023-12-24T07:06:57.840Z,140244.33
2023-12-24T07:09:43.762Z,140253.41
2023-12-24T07:12:31.327Z,140261.30
2023-12-24T07:15:17.748Z,140265.97
2023-12-24T07:18:04.109Z,140277.58
2023-12-24T07:20:50.689Z,140270.19
2023-12-24T07:23:38.920Z,140275.61
2023-12-24T07:26:25.184Z,140288.67
2023-12-24T07:29:11.074Z,140303.50
2023-12-24T07:31:57.019Z,140291.41
2023-12-24T07:34:43.132Z,140288.45
2023-12-24T07:37:29.012Z,140285.72
2023-12-24T07:40:15.311Z,140283.03
2023-12-24T07:43:02.695Z,140284.98
2023-12-24T07:45:48.908Z,140289.17
2023-12-24T07:48:34.987Z,140292.38
2023-12-24T07:51:21.432Z,140291.41
2023-12-24T07:54:07.320Z,140279.56
2023-12-24T07:56:53.302Z,140262.53
2023-12-24T07:59:39.324Z,140265.25
2023-12-24T08:02:26.038Z,140277.09
2023-12-24T08:05:12.552Z,140274.13
2023-12-24T08:07:59.068Z,140276.34
2023-12-24T08:10:45.004Z,140274.13
2023-12-24T08:13:31.045Z,140243.83
2023-12-24T08:16:17.044Z,140236.20
2023-12-24T08:19:03.971Z,140249.97
2023-12-24T08:21:50.268Z,140259.84
2023-12-24T08:24:36.437Z,140271.17
2023-12-24T08:27:22.804Z,140294.63
2023-12-24T08:30:09.823Z,140322.22
2023-12-24T08:32:56.464Z,140337.03
2023-12-24T08:35:43.195Z,140353.58
2023-12-24T08:38:29.617Z,140362.94
2023-12-24T08:41:15.659Z,140369.34
2023-12-24T08:44:01.710Z,140366.14
2023-12-24T08:46:49.923Z,140337.28
2023-12-24T08:49:36.034Z,140312.13
2023-12-24T08:52:22.668Z,140297.08
2023-12-24T08:55:09.310Z,140274.88
2023-12-24T08:57:55.517Z,140265.00
2023-12-24T09:00:41.612Z,140266.47
2023-12-24T09:03:27.689Z,140266.00
2023-12-24T09:06:14.450Z,140280.05
2023-12-24T09:09:00.764Z,140322.95
2023-12-24T09:11:48.615Z,140363.92
2023-12-24T09:14:34.567Z,140388.84
2023-12-24T09:17:21.315Z,140403.67
2023-12-24T09:20:08.693Z,140412.80
2023-12-24T09:22:55.163Z,140400.69
2023-12-24T09:25:41.498Z,140371.08
2023-12-24T09:28:27.513Z,140343.19
2023-12-24T09:31:13.613Z,140306.70
2023-12-24T09:34:00.896Z,140270.19
2023-12-24T09:36:47.125Z,140251.42
2023-12-24T09:39:34.238Z,140247.75
2023-12-24T09:42:20.688Z,140234.22
2023-12-24T09:45:06.976Z,140237.92
2023-12-24T09:47:53.227Z,140240.38
2023-12-24T09:50:39.525Z,140254.88
2023-12-24T09:53:25.671Z,140268.20
2023-12-24T09:56:12.057Z,140279.80
2023-12-24T09:59:01.499Z,140287.70
2023-12-24T10:01:49.903Z,140296.55
2023-12-24T10:04:35.900Z,140310.14
2023-12-24T10:07:21.877Z,140325.45
2023-12-24T10:10:12.436Z,140345.66
2023-12-24T10:13:06.608Z,140362.45
2023-12-24T10:16:04.085Z,140386.61
2023-12-24T10:18:51.776Z,140405.88
2023-12-24T10:21:38.376Z,140406.61
2023-12-24T10:24:24.124Z,140399.22
2023-12-24T10:27:11.904Z,140386.89
2023-12-24T10:30:15.398Z,140381.95
2023-12-24T10:33:12.897Z,140378.02
2023-12-24T10:35:59.440Z,140373.56
2023-12-24T10:38:45.526Z,140387.13
2023-12-24T10:41:31.606Z,140402.45
2023-12-24T10:44:18.572Z,140391.09
2023-12-24T10:47:05.310Z,140364.42
2023-12-24T10:49:53.257Z,140340.25
2023-12-24T10:52:39.461Z,140335.05
2023-12-24T10:55:26.358Z,140323.47
2023-12-24T10:58:19.528Z,140308.66
2023-12-24T11:01:10.578Z,140284.73
2023-12-24T11:03:58.048Z,140276.59
2023-12-24T11:06:44.594Z,140280.55
2023-12-24T11:09:33.409Z,140273.41
2023-12-24T11:12:37.753Z,140269.67
2023-12-24T11:15:40.920Z,140284.47
2023-12-24T11:18:48.406Z,140285.47
2023-12-24T11:22:13.871Z,140261.78
2023-12-24T11:25:17.794Z,140250.94
2023-12-24T11:28:09.185Z,140252.17
2023-12-24T11:30:55.179Z,140272.16
2023-12-24T11:33:48.159Z,140280.55
2023-12-24T11:36:34.423Z,140266.97
2023-12-24T11:39:20.588Z,140273.88
2023-12-24T11:42:07.293Z,140288.45
2023-12-24T11:44:57.382Z,140279.05
2023-12-24T11:47:44.354Z,140268.47
2023-12-24T11:50:30.920Z,140264.50
2023-12-24T11:53:20.768Z,140259.08
2023-12-24T11:56:13.008Z,140262.03
2023-12-24T11:59:00.312Z,140269.94
2023-12-24T12:01:46.382Z,140257.84
2023-12-24T12:04:32.356Z,140253.41
2023-12-24T12:07:18.188Z,140257.11
2023-12-24T12:10:05.206Z,140256.13
2023-12-24T12:12:51.997Z,140248.72
2023-12-24T12:15:38.229Z,140244.33
2023-12-24T12:18:24.442Z,140231.27
2023-12-24T12:21:13.764Z,140247.02
2023-12-24T12:23:59.957Z,140268.22
2023-12-24T12:26:46.444Z,140302.50
2023-12-24T12:29:33.102Z,140328.88
2023-12-24T12:32:19.414Z,140330.63
2023-12-24T12:35:05.859Z,140311.88
2023-12-24T12:37:52.485Z,140290.91
2023-12-24T12:40:44.223Z,140282.53
2023-12-24T12:43:36.301Z,140286.22
2023-12-24T12:46:23.092Z,140282.28
2023-12-24T12:49:09.821Z,140286.22
2023-12-24T12:51:56.276Z,140282.27
2023-12-24T12:54:42.465Z,140264.00
2023-12-24T12:57:30.484Z,140254.41
2023-12-24T13:00:22.098Z,140249.94
2023-12-24T13:03:09.535Z,140248.72
2023-12-24T13:05:58.296Z,140244.55
2023-12-24T13:08:44.750Z,140243.34
2023-12-24T13:11:31.349Z,140241.13
2023-12-24T13:14:20.646Z,140228.78
2023-12-24T13:17:11.129Z,140225.09
2023-12-24T13:19:57.264Z,140230.03
2023-12-24T13:22:43.992Z,140228.05
2023-12-24T13:25:32.069Z,140221.89
2023-12-24T13:28:19.119Z,140226.33
2023-12-24T13:31:05.258Z,140227.06
2023-12-24T13:33:51.506Z,140237.92
2023-12-24T13:36:37.957Z,140250.94
2023-12-24T13:39:23.877Z,140247.53
2023-12-24T13:42:09.964Z,140236.45
2023-12-24T13:44:56.351Z,140225.84
2023-12-24T13:47:42.680Z,140214.00
2023-12-24T13:50:29.135Z,140211.78
2023-12-24T13:53:24.614Z,140214.73
2023-12-24T13:56:17.925Z,140226.08
2023-12-24T13:59:06.862Z,140228.53
2023-12-24T14:01:53.685Z,140221.39
2023-12-24T14:04:39.928Z,140205.88
2023-12-24T14:07:31.406Z,140195.75
2023-12-24T14:10:18.989Z,140191.33
2023-12-24T14:13:05.403Z,140187.84
2023-12-24T14:15:51.487Z,140187.09
2023-12-24T14:18:37.736Z,140182.44
2023-12-24T14:21:24.129Z,140167.42
2023-12-24T14:24:10.572Z,140157.28
2023-12-24T14:26:56.562Z,140148.66
2023-12-24T14:29:42.671Z,140154.09
2023-12-24T14:32:29.943Z,140159.75
2023-12-24T14:35:16.336Z,140166.66
2023-12-24T14:38:02.585Z,140170.59
2023-12-24T14:40:49.098Z,140175.53
2023-12-24T14:43:35.417Z,140185.41
2023-12-24T14:46:21.400Z,140184.67
2023-12-24T14:49:07.577Z,140190.59
2023-12-24T14:51:53.695Z,140196.00
2023-12-24T14:54:40.229Z,140201.17
2023-12-24T14:57:27.601Z,140202.67
2023-12-24T15:00:14.335Z,140201.67
2023-12-24T15:03:00.738Z,140200.42
2023-12-24T15:05:47.032Z,140200.17
2023-12-24T15:08:33.363Z,140211.03
2023-12-24T15:11:20.908Z,140219.19
2023-12-24T15:14:09.202Z,140221.16
2023-12-24T15:16:55.337Z,140225.84
2023-12-24T15:19:41.305Z,140222.38
2023-12-24T15:22:28.625Z,140218.19
2023-12-24T15:25:14.529Z,140209.81
2023-12-24T15:28:00.685Z,140211.28
2023-12-24T15:30:51.606Z,140212.78
2023-12-24T15:33:38.274Z,140219.17
2023-12-24T15:36:24.358Z,140222.86
2023-12-24T15:39:10.407Z,140234.72
2023-12-24T15:41:58.318Z,140234.22
2023-12-24T15:44:44.938Z,140233.48
2023-12-24T15:47:32.239Z,140231.27
2023-12-24T15:50:19.269Z,140223.59
2023-12-24T15:53:05.735Z,140242.33
2023-12-24T15:55:51.707Z,140265.22
2023-12-24T15:58:37.733Z,140279.81
2023-12-24T16:01:23.721Z,140289.41
2023-12-24T16:04:10.387Z,140292.38
2023-12-24T16:06:56.754Z,140301.75
2023-12-24T16:09:42.756Z,140299.53
2023-12-24T16:12:28.755Z,140278.58
2023-12-24T16:15:16.076Z,140279.31
2023-12-24T16:18:02.749Z,140298.55
2023-12-24T16:20:49.175Z,140315.58
2023-12-24T16:23:35.749Z,140316.06
2023-12-24T16:26:22.248Z,140304.72
2023-12-24T16:29:08.614Z,140289.41
2023-12-24T16:31:54.573Z,140280.80
2023-12-24T16:34:40.596Z,140280.05
2023-12-24T16:37:26.651Z,140271.17
2023-12-24T16:40:12.938Z,140268.95
2023-12-24T16:42:59.301Z,140257.09
2023-12-24T16:45:45.771Z,140257.13
2023-12-24T16:48:32.469Z,140263.53
2023-12-24T16:51:20.167Z,140274.63
2023-12-24T16:54:06.825Z,140280.28
2023-12-24T16:56:53.054Z,140286.95
2023-12-24T16:59:39.825Z,140290.91
2023-12-24T17:02:28.222Z,140289.16
2023-12-24T17:05:14.769Z,140283.48
2023-12-24T17:11:17.006Z,140267.72
2023-12-24T17:14:03.570Z,140257.09
2023-12-24T17:16:50.221Z,140254.14
2023-12-24T17:19:36.307Z,140247.97
2023-12-24T17:22:22.815Z,140239.16
2023-12-24T17:25:09.032Z,140230.50
2023-12-24T17:27:55.334Z,140221.39
2023-12-24T17:30:41.919Z,140219.17
2023-12-24T17:33:28.279Z,140237.19
2023-12-24T17:36:18.814Z,140235.20
2023-12-24T17:39:05.679Z,140243.59
2023-12-24T17:41:52.348Z,140248.22
2023-12-24T17:44:38.958Z,140240.14
2023-12-24T17:47:26.344Z,140244.33
2023-12-24T17:50:12.933Z,140240.16
2023-12-24T17:52:59.403Z,140225.84
2023-12-24T17:55:45.656Z,140221.16
2023-12-24T17:58:31.665Z,140219.17
2023-12-24T18:01:17.609Z,140217.45
2023-12-24T18:04:04.615Z,140222.61
2023-12-24T18:06:50.976Z,140234.70
2023-12-24T18:09:37.336Z,140236.20
2023-12-24T18:12:23.949Z,140245.05
2023-12-24T18:15:10.234Z,140232.25
2023-12-24T18:17:56.366Z,140218.70
2023-12-24T18:20:42.520Z,140212.03
2023-12-24T18:23:29.055Z,140216.22
2023-12-24T18:26:16.578Z,140211.78
2023-12-24T18:29:04.539Z,140216.72
2023-12-24T18:31:50.700Z,140220.16
2023-12-24T18:34:36.747Z,140231.78
2023-12-24T18:37:24.047Z,140246.03
2023-12-24T18:40:11.000Z,140255.64
2023-12-24T18:42:57.140Z,140265.47
2023-12-24T18:45:43.532Z,140285.23
2023-12-24T18:48:29.739Z,140308.66
2023-12-24T18:51:22.059Z,140324.94
2023-12-24T18:54:08.382Z,140334.06
2023-12-24T18:56:54.362Z,140338.75
2023-12-24T18:59:40.926Z,140343.20
2023-12-24T19:02:27.106Z,140339.00
2023-12-24T19:05:14.911Z,140330.88
2023-12-24T19:08:01.264Z,140337.28
2023-12-24T19:10:47.680Z,140345.17
2023-12-24T19:13:33.801Z,140354.30
2023-12-24T19:16:19.759Z,140361.69
2023-12-24T19:19:06.337Z,140364.67
2023-12-24T19:21:53.047Z,140365.91
2023-12-24T19:24:39.337Z,140367.88
2023-12-24T19:27:25.453Z,140375.28
2023-12-24T19:30:12.023Z,140384.19
2023-12-24T19:32:58.579Z,140384.41
2023-12-24T19:35:45.181Z,140382.70
2023-12-24T19:38:31.344Z,140375.28
2023-12-24T19:41:18.739Z,140360.48
2023-12-24T19:44:04.784Z,140345.67
2023-12-24T19:46:51.169Z,140339.75
2023-12-24T19:49:38.317Z,140340.00
2023-12-24T19:52:35.707Z,140346.66
2023-12-24T19:55:26.045Z,140353.56
2023-12-24T19:58:12.557Z,140346.41
2023-12-24T20:00:58.892Z,140349.63
2023-12-24T20:03:44.983Z,140355.55
2023-12-24T20:06:31.009Z,140356.03
2023-12-24T20:09:17.101Z,140360.72
2023-12-24T20:12:03.872Z,140357.50
2023-12-24T20:14:50.227Z,140353.81
2023-12-24T20:17:37.062Z,140353.58
2023-12-24T20:20:23.650Z,140352.33
2023-12-24T20:23:10.435Z,140356.03
2023-12-24T20:25:56.787Z,140350.84
2023-12-24T20:28:42.733Z,140338.28
2023-12-24T20:31:28.616Z,140328.66
2023-12-24T20:34:15.314Z,140318.28
2023-12-24T20:37:01.421Z,140310.38
2023-12-24T20:39:47.570Z,140305.95
2023-12-24T20:42:33.565Z,140317.78
2023-12-24T20:45:19.628Z,140332.33
2023-12-24T20:48:06.024Z,140340.97
2023-12-24T20:50:52.426Z,140352.59
2023-12-24T20:53:38.791Z,140357.77
2023-12-24T20:56:25.013Z,140348.89
2023-12-24T20:59:11.186Z,140342.20
2023-12-24T21:01:57.104Z,140337.78
2023-12-24T21:04:44.158Z,140331.36
2023-12-24T21:07:30.360Z,140328.88
2023-12-24T21:10:16.688Z,140321.00
2023-12-24T21:13:03.183Z,140317.28
2023-12-24T21:15:49.170Z,140321.98
2023-12-24T21:18:35.409Z,140315.83
2023-12-24T21:21:22.223Z,140311.84
2023-12-24T21:24:08.859Z,140302.50
2023-12-24T21:26:55.259Z,140298.55
2023-12-24T21:29:41.407Z,140295.09
2023-12-24T21:32:28.019Z,140293.13
2023-12-24T21:35:14.487Z,140285.22
2023-12-24T21:38:01.444Z,140271.91
2023-12-24T21:40:47.479Z,140259.56
2023-12-24T21:43:36.296Z,140235.45
2023-12-24T21:46:22.949Z,140222.86
2023-12-24T21:49:09.644Z,140219.69
2023-12-24T21:51:55.973Z,140223.88
2023-12-24T21:54:42.555Z,140230.78
2023-12-24T21:57:28.880Z,140231.25
2023-12-24T22:00:15.344Z,140217.45
2023-12-24T22:03:01.426Z,140200.45
2023-12-24T22:05:47.913Z,140172.08
2023-12-24T22:08:34.682Z,140142.22
2023-12-24T22:11:21.924Z,140113.91
2023-12-24T22:14:08.628Z,140088.27
2023-12-24T22:16:54.928Z,140069.28
2023-12-24T22:19:41.988Z,140056.22
2023-12-24T22:22:28.515Z,140040.45
2023-12-24T22:25:15.120Z,140026.41
2023-12-24T22:28:01.972Z,140010.64
2023-12-24T22:30:48.371Z,139997.58
2023-12-24T22:33:35.137Z,139977.63
2023-12-24T22:36:21.393Z,139959.64
2023-12-24T22:39:07.634Z,139945.34
2023-12-24T22:41:54.290Z,139926.41
2023-12-24T22:44:43.464Z,139916.78
2023-12-24T22:47:30.112Z,139912.83
2023-12-24T22:50:16.572Z,139913.83
2023-12-24T22:53:04.074Z,139909.88
2023-12-24T22:55:51.113Z,139905.69
2023-12-24T22:58:40.474Z,139898.31
2023-12-24T23:01:26.461Z,139882.28
2023-12-24T23:04:12.690Z,139866.28
2023-12-24T23:06:58.834Z,139852.27
2023-12-24T23:09:44.920Z,139839.22
2023-12-24T23:12:30.911Z,139828.88
2023-12-24T23:15:16.903Z,139828.88
2023-12-24T23:18:04.181Z,139833.30
2023-12-24T23:20:50.568Z,139838.70
2023-12-24T23:23:37.211Z,139840.45
2023-12-24T23:26:23.807Z,139830.34
2023-12-24T23:29:09.825Z,139821.47
2023-12-24T23:31:55.726Z,139806.70
2023-12-24T23:34:41.830Z,139795.34
2023-12-24T23:37:29.509Z,139794.41
2023-12-24T23:40:15.848Z,139803.00
2023-12-24T23:43:02.425Z,139804.25
2023-12-24T23:45:48.395Z,139789.75
2023-12-24T23:48:34.592Z,139774.78
2023-12-24T23:51:21.072Z,139766.63
2023-12-24T23:54:07.481Z,139755.30
2023-12-24T23:56:53.717Z,139738.83
2023-12-24T23:59:41.464Z,139733.91
